createdAt,value
2018-09-06T00:00:15.734Z,97831.11
2018-09-06T00:02:43.921Z,97829.48
2018-09-06T00:05:12.185Z,97827.52
2018-09-06T00:07:40.467Z,97829.95
2018-09-06T00:10:08.661Z,97827.50
2018-09-06T00:12:36.853Z,97832.97
2018-09-06T00:15:05.277Z,97830.86
2018-09-06T00:17:33.580Z,97813.84
2018-09-06T00:20:01.822Z,97825.91
2018-09-06T00:22:30.021Z,97823.16
2018-09-06T00:24:58.264Z,97824.23
2018-09-06T00:27:26.479Z,97834.05
2018-09-06T00:29:54.739Z,97832.95
2018-09-06T00:32:23.037Z,97819.41
2018-09-06T00:34:51.291Z,97825.05
2018-09-06T00:37:19.590Z,97830.55
2018-09-06T00:39:47.867Z,97829.55
2018-09-06T00:42:16.638Z,97830.18
2018-09-06T00:44:44.967Z,97831.13
2018-09-06T00:47:13.536Z,97830.75
2018-09-06T00:49:42.001Z,97826.48
2018-09-06T00:52:10.168Z,97820.28
2018-09-06T00:54:38.364Z,97819.22
2018-09-06T00:57:06.528Z,97820.64
2018-09-06T00:59:34.766Z,97820.75
2018-09-06T01:02:03.034Z,97819.28
2018-09-06T01:04:31.214Z,97815.03
2018-09-06T01:06:59.416Z,97817.29
2018-09-06T01:09:27.627Z,97816.08
2018-09-06T01:11:55.849Z,97811.66
2018-09-06T01:14:24.042Z,97809.08
2018-09-06T01:16:52.237Z,97801.70
2018-09-06T01:19:20.609Z,97808.48
2018-09-06T01:21:49.183Z,97803.80
2018-09-06T01:24:17.617Z,97809.97
2018-09-06T01:26:45.829Z,97795.23
2018-09-06T01:29:14.003Z,97796.96
2018-09-06T01:31:42.355Z,97796.48
2018-09-06T01:34:10.553Z,97800.73
2018-09-06T01:36:44.229Z,97794.05
2018-09-06T01:39:12.389Z,97799.70
2018-09-06T01:41:40.601Z,97806.58
2018-09-06T01:44:08.885Z,97799.59
2018-09-06T01:46:37.927Z,97797.73
2018-09-06T01:49:06.577Z,97795.16
2018-09-06T01:51:35.480Z,97802.84
2018-09-06T01:54:03.700Z,97799.53
2018-09-06T01:56:32.708Z,97795.88
2018-09-06T01:59:01.349Z,97794.00
2018-09-06T02:01:29.521Z,97792.36
2018-09-06T02:03:57.998Z,97805.52
2018-09-06T02:06:26.310Z,97795.24
2018-09-06T02:08:54.826Z,97798.01
2018-09-06T02:11:23.089Z,97798.00
2018-09-06T02:13:51.361Z,97793.84
2018-09-06T02:16:19.573Z,97793.90
2018-09-06T02:18:48.180Z,97790.67
2018-09-06T02:21:16.394Z,97791.68
2018-09-06T02:23:44.878Z,97783.13
2018-09-06T02:26:13.047Z,97784.91
2018-09-06T02:28:41.229Z,97786.27
2018-09-06T02:31:09.418Z,97784.13
2018-09-06T02:33:37.606Z,97777.73
2018-09-06T02:36:05.873Z,97774.70
2018-09-06T02:38:34.146Z,97778.01
2018-09-06T02:41:02.379Z,97779.09
2018-09-06T02:43:30.565Z,97770.89
2018-09-06T02:45:58.983Z,97772.19
2018-09-06T02:48:32.677Z,97772.12
2018-09-06T02:51:06.149Z,97770.11
2018-09-06T02:53:34.441Z,97769.47
2018-09-06T02:56:03.037Z,97770.19
2018-09-06T02:58:31.325Z,97765.94
2018-09-06T03:00:59.818Z,97766.45
2018-09-06T03:03:28.378Z,97765.08
2018-09-06T03:05:56.645Z,97762.98
2018-09-06T03:08:24.926Z,97758.31
2018-09-06T03:10:56.034Z,97756.52
2018-09-06T03:13:24.240Z,97755.85
2018-09-06T03:15:52.444Z,97752.72
2018-09-06T03:18:20.694Z,97755.28
2018-09-06T03:20:48.886Z,97752.98
2018-09-06T03:23:17.120Z,97749.81
2018-09-06T03:25:45.332Z,97749.81
2018-09-06T03:28:13.620Z,97752.62
2018-09-06T03:30:41.834Z,97745.64
2018-09-06T03:33:10.037Z,97750.46
2018-09-06T03:35:38.320Z,97750.89
2018-09-06T03:38:06.584Z,97747.66
2018-09-06T03:40:34.863Z,97744.50
2018-09-06T03:43:03.151Z,97737.38
2018-09-06T03:45:31.582Z,97743.34
2018-09-06T03:48:00.625Z,97737.95
2018-09-06T03:50:28.810Z,97743.09
2018-09-06T03:52:57.162Z,97740.33
2018-09-06T03:55:25.439Z,97744.86
2018-09-06T03:57:53.633Z,97742.48
2018-09-06T04:00:21.837Z,97746.22
2018-09-06T04:02:50.017Z,97742.84
2018-09-06T04:05:18.705Z,97739.94
2018-09-06T04:07:46.921Z,97741.72
2018-09-06T04:10:15.307Z,97744.31
2018-09-06T04:12:43.589Z,97740.22
2018-09-06T04:15:11.852Z,97740.55
2018-09-06T04:17:40.041Z,97741.19
2018-09-06T04:20:08.629Z,97742.98
2018-09-06T04:22:41.088Z,97742.48
2018-09-06T04:25:09.264Z,97747.73
2018-09-06T04:27:37.469Z,97753.70
2018-09-06T04:30:05.690Z,97752.12
2018-09-06T04:32:33.897Z,97743.53
2018-09-06T04:35:02.087Z,97740.86
2018-09-06T04:37:30.313Z,97734.68
2018-09-06T04:39:58.498Z,97741.22
2018-09-06T04:42:27.010Z,97744.74
2018-09-06T04:44:55.194Z,97737.47
2018-09-06T04:47:23.387Z,97732.22
2018-09-06T04:49:51.556Z,97738.28
2018-09-06T04:52:19.742Z,97740.36
2018-09-06T04:54:47.982Z,97738.92
2018-09-06T04:57:16.514Z,97739.58
2018-09-06T04:59:44.717Z,97741.48
2018-09-06T05:02:12.993Z,97743.81
2018-09-06T05:04:41.331Z,97754.55
2018-09-06T05:07:09.557Z,97751.75
2018-09-06T05:09:37.845Z,97752.48
2018-09-06T05:12:06.318Z,97755.42
2018-09-06T05:14:34.729Z,97752.12
2018-09-06T05:17:03.441Z,97757.14
2018-09-06T05:19:31.869Z,97752.69
2018-09-06T05:22:00.124Z,97757.67
2018-09-06T05:24:28.660Z,97757.23
2018-09-06T05:26:57.189Z,97762.11
2018-09-06T05:29:25.372Z,97762.19
2018-09-06T05:31:53.921Z,97763.13
2018-09-06T05:34:22.109Z,97755.13
2018-09-06T05:36:50.315Z,97755.86
2018-09-06T05:39:18.596Z,97758.41
2018-09-06T05:41:46.774Z,97756.98
2018-09-06T05:44:15.231Z,97761.11
2018-09-06T05:46:43.549Z,97756.97
2018-09-06T05:49:11.784Z,97759.27
2018-09-06T05:51:40.026Z,97759.96
2018-09-06T05:54:08.426Z,97763.81
2018-09-06T05:56:36.612Z,97762.97
2018-09-06T05:59:04.898Z,97763.70
2018-09-06T06:01:33.085Z,97766.11
2018-09-06T06:04:01.256Z,97764.36
2018-09-06T06:06:29.534Z,97764.94
2018-09-06T06:08:57.818Z,97767.84
2018-09-06T06:11:26.011Z,97767.94
2018-09-06T06:13:54.245Z,97767.83
2018-09-06T06:16:22.489Z,97763.72
2018-09-06T06:18:50.689Z,97764.77
2018-09-06T06:21:18.973Z,97758.98
2018-09-06T06:23:47.261Z,97755.78
2018-09-06T06:26:15.535Z,97762.09
2018-09-06T06:28:43.728Z,97760.69
2018-09-06T06:31:11.907Z,97761.03
2018-09-06T06:33:40.113Z,97766.48
2018-09-06T06:36:08.329Z,97760.59
2018-09-06T06:38:36.589Z,97764.72
2018-09-06T06:41:04.772Z,97763.48
2018-09-06T06:43:32.956Z,97758.13
2018-09-06T06:46:01.156Z,97759.63
2018-09-06T06:48:29.352Z,97754.83
2018-09-06T06:50:57.568Z,97757.04
2018-09-06T06:53:25.864Z,97755.10
2018-09-06T06:55:54.066Z,97747.70
2018-09-06T06:58:22.302Z,97747.18
2018-09-06T07:00:50.627Z,97744.48
2018-09-06T07:03:18.777Z,97746.16
2018-09-06T07:05:46.953Z,97744.45
2018-09-06T07:08:15.191Z,97746.25
2018-09-06T07:10:43.393Z,97749.61
2018-09-06T07:13:11.651Z,97747.30
2018-09-06T07:15:39.863Z,97748.48
2018-09-06T07:18:08.119Z,97750.50
2018-09-06T07:20:36.229Z,97751.45
2018-09-06T07:23:04.462Z,97751.26
2018-09-06T07:25:32.709Z,97743.63
2018-09-06T07:28:01.221Z,97747.78
2018-09-06T07:30:29.753Z,97745.83
2018-09-06T07:32:57.905Z,97748.56
2018-09-06T07:35:28.113Z,97746.38
2018-09-06T07:37:56.309Z,97746.38
2018-09-06T07:40:24.643Z,97743.80
2018-09-06T07:42:52.908Z,97744.16
2018-09-06T07:45:21.190Z,97747.48
2018-09-06T07:47:49.456Z,97746.70
2018-09-06T07:50:17.736Z,97747.80
2018-09-06T07:52:46.029Z,97746.84
2018-09-06T07:55:14.257Z,97745.24
2018-09-06T07:57:42.475Z,97741.71
2018-09-06T08:00:10.686Z,97743.85
2018-09-06T08:02:38.887Z,97733.52
2018-09-06T08:05:07.104Z,97735.73
2018-09-06T08:07:35.639Z,97729.33
2018-09-06T08:10:04.078Z,97735.66
2018-09-06T08:12:32.328Z,97733.09
2018-09-06T08:15:00.614Z,97732.38
2018-09-06T08:17:28.882Z,97728.83
2018-09-06T08:19:57.138Z,97734.02
2018-09-06T08:22:25.377Z,97730.17
2018-09-06T08:24:53.571Z,97734.28
2018-09-06T08:27:21.934Z,97734.13
2018-09-06T08:29:50.235Z,97732.19
2018-09-06T08:32:18.425Z,97732.51
2018-09-06T08:34:46.900Z,97735.70
2018-09-06T08:37:15.099Z,97736.49
2018-09-06T08:39:43.297Z,97737.34
2018-09-06T08:42:11.474Z,97733.19
2018-09-06T08:44:39.720Z,97728.45
2018-09-06T08:47:07.990Z,97729.09
2018-09-06T08:49:36.277Z,97724.23
2018-09-06T08:52:04.544Z,97722.59
2018-09-06T08:54:32.710Z,97711.03
2018-09-06T08:57:00.920Z,97714.25
2018-09-06T08:59:29.236Z,97721.58
2018-09-06T09:01:57.426Z,97718.42
2018-09-06T09:04:25.686Z,97716.14
2018-09-06T09:06:53.898Z,97717.32
2018-09-06T09:09:22.116Z,97712.84
2018-09-06T09:11:50.292Z,97709.96
2018-09-06T09:14:18.523Z,97704.01
2018-09-06T09:16:46.806Z,97698.53
2018-09-06T09:19:15.026Z,97701.07
2018-09-06T09:21:43.236Z,97698.08
2018-09-06T09:24:11.384Z,97690.56
2018-09-06T09:26:39.566Z,97683.37
2018-09-06T09:29:07.778Z,97686.70
2018-09-06T09:31:36.365Z,97682.74
2018-09-06T09:34:04.629Z,97681.47
2018-09-06T09:36:32.814Z,97676.48
2018-09-06T09:39:01.070Z,97678.92
2018-09-06T09:41:29.250Z,97679.69
2018-09-06T09:43:57.472Z,97678.39
2018-09-06T09:51:21.857Z,97677.13
2018-09-06T09:53:50.113Z,97671.59
2018-09-06T09:56:18.425Z,97665.62
2018-09-06T09:58:46.697Z,97666.61
2018-09-06T10:01:15.145Z,97661.29
2018-09-06T10:03:48.910Z,97656.72
2018-09-06T10:06:22.437Z,97651.67
2018-09-06T10:08:56.273Z,97652.79
2018-09-06T10:11:24.788Z,97646.37
2018-09-06T10:13:53.081Z,97643.58
2018-09-06T10:16:21.316Z,97644.84
2018-09-06T10:18:49.741Z,97636.01
2018-09-06T10:21:18.098Z,97636.45
2018-09-06T10:23:46.636Z,97633.67
2018-09-06T10:26:14.921Z,97632.97
2018-09-06T10:28:43.469Z,97631.70
2018-09-06T10:31:11.989Z,97631.06
2018-09-06T10:33:40.198Z,97624.22
2018-09-06T10:36:08.436Z,97628.30
2018-09-06T10:38:36.951Z,97618.62
2018-09-06T10:41:05.132Z,97617.44
2018-09-06T10:43:33.881Z,97616.40
2018-09-06T10:46:02.169Z,97610.33
2018-09-06T10:48:30.456Z,97608.23
2018-09-06T10:50:58.685Z,97602.88
2018-09-06T10:53:27.078Z,97612.81
2018-09-06T10:55:55.813Z,97602.66
2018-09-06T10:58:24.191Z,97600.42
2018-09-06T11:00:56.622Z,97609.77
2018-09-06T11:03:24.917Z,97606.66
2018-09-06T11:05:53.105Z,97605.59
2018-09-06T11:08:21.330Z,97607.93
2018-09-06T11:10:49.485Z,97605.55
2018-09-06T11:13:17.669Z,97601.97
2018-09-06T11:15:45.857Z,97595.19
2018-09-06T11:18:14.067Z,97597.94
2018-09-06T11:20:42.341Z,97592.84
2018-09-06T11:23:10.548Z,97602.45
2018-09-06T11:25:38.765Z,97578.88
2018-09-06T11:30:40.342Z,97572.61
2018-09-06T11:33:08.607Z,97560.86
2018-09-06T11:35:36.746Z,97561.68
2018-09-06T11:38:05.098Z,97559.48
2018-09-06T11:40:33.302Z,97564.63
2018-09-06T11:43:01.431Z,97555.00
2018-09-06T11:45:29.858Z,97548.37
2018-09-06T11:47:58.110Z,97551.64
2018-09-06T11:50:26.342Z,97547.83
2018-09-06T11:52:54.519Z,97545.31
2018-09-06T11:55:22.719Z,97543.05
2018-09-06T11:57:51.172Z,97537.31
2018-09-06T12:00:19.495Z,97532.98
2018-09-06T12:02:47.727Z,97523.61
2018-09-06T12:05:15.929Z,97526.39
2018-09-06T12:07:44.129Z,97526.59
2018-09-06T12:10:12.307Z,97525.79
2018-09-06T12:12:40.477Z,97522.98
2018-09-06T12:15:08.708Z,97509.62
2018-09-06T12:17:36.876Z,97507.89
2018-09-06T12:20:05.297Z,97502.39
2018-09-06T12:22:33.472Z,97507.77
2018-09-06T12:25:02.027Z,97499.98
2018-09-06T12:27:30.280Z,97496.34
2018-09-06T12:29:58.781Z,97493.91
2018-09-06T12:32:26.974Z,97487.75
2018-09-06T12:34:55.402Z,97493.94
2018-09-06T12:37:23.868Z,97491.33
2018-09-06T12:39:52.062Z,97488.02
2018-09-06T12:42:20.240Z,97480.88
2018-09-06T12:44:48.475Z,97483.75
2018-09-06T12:47:16.688Z,97476.01
2018-09-06T12:49:44.918Z,97474.02
2018-09-06T12:52:13.060Z,97468.47
2018-09-06T12:54:41.234Z,97456.95
2018-09-06T12:57:09.414Z,97459.46
2018-09-06T12:59:37.618Z,97456.08
2018-09-06T13:02:05.837Z,97450.28
2018-09-06T13:04:34.117Z,97448.49
2018-09-06T13:07:02.424Z,97443.20
2018-09-06T13:09:30.637Z,97451.12
2018-09-06T13:11:58.853Z,97443.80
2018-09-06T13:14:27.294Z,97437.98
2018-09-06T13:16:55.522Z,97434.33
2018-09-06T13:19:23.937Z,97443.89
2018-09-06T13:21:52.167Z,97437.86
2018-09-06T13:24:20.422Z,97439.02
2018-09-06T13:26:49.173Z,97435.22
2018-09-06T13:29:17.352Z,97419.78
2018-09-06T13:31:45.551Z,97416.83
2018-09-06T13:34:13.848Z,97413.87
2018-09-06T13:36:42.028Z,97409.91
2018-09-06T13:39:11.164Z,97403.38
2018-09-06T13:41:39.650Z,97402.00
2018-09-06T13:44:07.882Z,97398.59
2018-09-06T13:46:36.306Z,97395.08
2018-09-06T13:49:04.486Z,97394.80
2018-09-06T13:51:32.705Z,97388.61
2018-09-06T13:54:00.897Z,97380.20
2018-09-06T13:56:30.082Z,97388.08
2018-09-06T13:58:58.545Z,97379.77
2018-09-06T14:01:26.777Z,97378.46
2018-09-06T14:03:54.936Z,97373.38
2018-09-06T14:06:23.200Z,97372.67
2018-09-06T14:08:51.381Z,97364.38
2018-09-06T14:11:19.571Z,97364.30
2018-09-06T14:13:47.947Z,97353.78
2018-09-06T14:16:16.237Z,97351.38
2018-09-06T14:18:44.422Z,97348.99
2018-09-06T14:21:12.771Z,97346.63
2018-09-06T14:23:40.951Z,97345.66
2018-09-06T14:26:09.169Z,97346.48
2018-09-06T14:28:37.356Z,97334.09
2018-09-06T14:31:05.535Z,97336.71
2018-09-06T14:33:33.787Z,97335.55
2018-09-06T14:36:02.138Z,97334.23
2018-09-06T14:38:30.414Z,97318.48
2018-09-06T14:40:58.550Z,97317.92
2018-09-06T14:43:26.738Z,97313.95
2018-09-06T14:45:54.907Z,97318.61
2018-09-06T14:48:23.473Z,97313.76
2018-09-06T14:50:51.809Z,97310.67
2018-09-06T14:53:19.998Z,97305.79
2018-09-06T14:55:48.189Z,97309.05
2018-09-06T14:58:16.463Z,97308.84
2018-09-06T15:00:44.722Z,97307.84
2018-09-06T15:03:12.903Z,97308.13
2018-09-06T15:05:41.222Z,97299.83
2018-09-06T15:08:09.414Z,97300.75
2018-09-06T15:10:37.683Z,97300.12
2018-09-06T15:13:06.131Z,97295.61
2018-09-06T15:15:34.393Z,97299.03
2018-09-06T15:18:02.583Z,97292.64
2018-09-06T15:20:30.853Z,97298.88
2018-09-06T15:22:59.325Z,97304.93
2018-09-06T15:25:27.501Z,97293.55
2018-09-06T15:27:55.837Z,97299.27
2018-09-06T15:30:23.960Z,97297.36
2018-09-06T15:32:52.205Z,97300.98
2018-09-06T15:35:21.238Z,97296.76
2018-09-06T15:37:49.438Z,97300.44
2018-09-06T15:40:17.654Z,97293.34
2018-09-06T15:42:45.944Z,97290.42
2018-09-06T15:45:14.544Z,97286.22
2018-09-06T15:47:43.078Z,97289.63
2018-09-06T15:50:11.455Z,97278.30
2018-09-06T15:52:39.810Z,97283.84
2018-09-06T15:55:08.038Z,97279.03
2018-09-06T15:57:36.584Z,97276.52
2018-09-06T16:00:04.816Z,97273.94
2018-09-06T16:02:33.069Z,97274.81
2018-09-06T16:05:01.256Z,97272.00
2018-09-06T16:07:29.466Z,97267.94
2018-09-06T16:09:57.642Z,97258.34
2018-09-06T16:12:26.164Z,97259.56
2018-09-06T16:14:54.329Z,97258.70
2018-09-06T16:17:22.487Z,97255.91
2018-09-06T16:19:50.717Z,97251.00
2018-09-06T16:22:18.974Z,97252.39
2018-09-06T16:24:47.208Z,97253.53
2018-09-06T16:27:15.377Z,97248.70
2018-09-06T16:29:43.561Z,97257.15
2018-09-06T16:32:11.733Z,97249.63
2018-09-06T16:34:39.975Z,97253.98
2018-09-06T16:37:08.474Z,97251.41
2018-09-06T16:39:36.701Z,97248.90
2018-09-06T16:42:04.940Z,97248.92
2018-09-06T16:44:33.716Z,97248.02
2018-09-06T16:47:01.919Z,97258.35
2018-09-06T16:49:30.121Z,97247.55
2018-09-06T16:51:58.377Z,97252.77
2018-09-06T16:54:26.700Z,97248.98
2018-09-06T16:56:54.884Z,97252.56
2018-09-06T16:59:23.058Z,97253.18
2018-09-06T17:01:51.236Z,97246.60
2018-09-06T17:04:19.430Z,97247.33
2018-09-06T17:06:47.666Z,97250.88
2018-09-06T17:09:15.806Z,97253.73
2018-09-06T17:11:44.100Z,97250.01
2018-09-06T17:14:12.356Z,97265.03
2018-09-06T17:16:40.531Z,97264.09
2018-09-06T17:19:08.766Z,97262.84
2018-09-06T17:21:37.185Z,97262.11
2018-09-06T17:24:05.469Z,97261.81
2018-09-06T17:26:33.649Z,97262.08
2018-09-06T17:29:01.834Z,97262.98
2018-09-06T17:31:30.034Z,97266.66
2018-09-06T17:33:58.319Z,97269.45
2018-09-06T17:36:26.753Z,97271.01
2018-09-06T17:38:55.090Z,97275.50
2018-09-06T17:41:23.749Z,97276.62
2018-09-06T17:43:52.011Z,97275.80
2018-09-06T17:46:20.554Z,97272.77
2018-09-06T17:48:48.836Z,97272.06
2018-09-06T17:51:17.003Z,97282.57
2018-09-06T17:53:45.254Z,97272.63
2018-09-06T17:56:13.539Z,97274.69
2018-09-06T17:58:42.047Z,97274.88
2018-09-06T18:01:22.933Z,97281.55
2018-09-06T18:03:51.224Z,97286.70
2018-09-06T18:06:19.584Z,97285.23
2018-09-06T18:08:47.786Z,97289.06
2018-09-06T18:11:16.000Z,97293.89
2018-09-06T18:13:44.198Z,97302.67
2018-09-06T18:16:12.849Z,97300.86
2018-09-06T18:18:41.512Z,97301.22
2018-09-06T18:21:09.704Z,97306.09
2018-09-06T18:23:37.929Z,97310.90
2018-09-06T18:26:06.130Z,97316.13
2018-09-06T18:28:34.533Z,97318.02
2018-09-06T18:31:03.064Z,97319.80
2018-09-06T18:33:31.578Z,97321.31
2018-09-06T18:36:00.383Z,97320.41
2018-09-06T18:38:28.637Z,97324.22
2018-09-06T18:40:56.957Z,97322.88
2018-09-06T18:43:25.259Z,97327.34
2018-09-06T18:45:53.594Z,97329.09
2018-09-06T18:48:21.899Z,97331.72
2018-09-06T18:50:50.233Z,97339.17
2018-09-06T18:53:18.419Z,97339.28
2018-09-06T18:55:46.637Z,97340.42
2018-09-06T18:58:14.853Z,97338.77
2018-09-06T19:00:43.102Z,97337.47
2018-09-06T19:03:11.359Z,97334.97
2018-09-06T19:05:40.081Z,97332.11
2018-09-06T19:08:08.318Z,97332.56
2018-09-06T19:10:36.516Z,97335.13
2018-09-06T19:13:04.710Z,97336.51
2018-09-06T19:15:33.466Z,97338.11
2018-09-06T19:18:01.842Z,97340.65
2018-09-06T19:20:30.039Z,97335.58
2018-09-06T19:22:58.225Z,97335.87
2018-09-06T19:25:26.473Z,97332.84
2018-09-06T19:27:55.333Z,97339.35
2018-09-06T19:30:23.674Z,97340.16
2018-09-06T19:32:51.926Z,97341.01
2018-09-06T19:35:21.211Z,97345.01
2018-09-06T19:37:49.498Z,97349.33
2018-09-06T19:40:17.684Z,97340.17
2018-09-06T19:42:45.869Z,97341.13
2018-09-06T19:45:14.083Z,97342.22
2018-09-06T19:47:42.317Z,97339.84
2018-09-06T19:50:10.555Z,97344.41
2018-09-06T19:52:39.151Z,97341.27
2018-09-06T19:55:07.339Z,97335.19
2018-09-06T19:57:36.518Z,97335.06
2018-09-06T20:00:05.428Z,97337.05
2018-09-06T20:02:33.757Z,97338.05
2018-09-06T20:05:02.167Z,97336.89
2018-09-06T20:07:30.471Z,97331.55
2018-09-06T20:09:59.046Z,97339.82
2018-09-06T20:12:27.254Z,97339.25
2018-09-06T20:14:55.712Z,97348.69
2018-09-06T20:17:24.723Z,97347.95
2018-09-06T20:19:52.910Z,97341.29
2018-09-06T20:22:21.178Z,97341.48
2018-09-06T20:24:49.412Z,97343.48
2018-09-06T20:27:17.640Z,97345.45
2018-09-06T20:29:45.841Z,97349.33
2018-09-06T20:32:14.112Z,97350.76
2018-09-06T20:34:42.310Z,97348.61
2018-09-06T20:37:10.594Z,97344.91
2018-09-06T20:39:38.873Z,97347.09
2018-09-06T20:42:07.769Z,97349.84
2018-09-06T20:44:36.321Z,97346.72
2018-09-06T20:47:04.689Z,97347.50
2018-09-06T20:49:32.949Z,97354.95
2018-09-06T20:52:01.209Z,97358.50
2018-09-06T20:54:29.381Z,97350.23
2018-09-06T20:56:57.605Z,97351.23
2018-09-06T20:59:25.819Z,97350.25
2018-09-06T21:01:54.458Z,97351.81
2018-09-06T21:04:22.637Z,97350.06
2018-09-06T21:06:50.965Z,97349.88
2018-09-06T21:09:19.148Z,97351.61
2018-09-06T21:11:47.346Z,97347.30
2018-09-06T21:14:15.672Z,97352.61
2018-09-06T21:16:43.900Z,97350.86
2018-09-06T21:19:12.197Z,97348.49
2018-09-06T21:21:40.466Z,97349.09
2018-09-06T21:24:08.658Z,97351.84
2018-09-06T21:26:36.900Z,97351.05
2018-09-06T21:29:05.304Z,97347.12
2018-09-06T21:31:33.570Z,97343.59
2018-09-06T21:34:01.747Z,97341.43
2018-09-06T21:36:29.935Z,97337.12
2018-09-06T21:38:58.179Z,97343.59
2018-09-06T21:41:26.446Z,97345.16
2018-09-06T21:43:54.750Z,97336.53
2018-09-06T21:46:22.945Z,97346.14
2018-09-06T21:48:51.122Z,97349.67
2018-09-06T21:51:19.430Z,97347.87
2018-09-06T21:53:47.729Z,97348.85
2018-09-06T21:56:16.005Z,97351.78
2018-09-06T21:58:44.193Z,97363.94
2018-09-06T22:01:12.472Z,97363.75
2018-09-06T22:03:46.100Z,97369.28
2018-09-06T22:06:14.286Z,97367.09
2018-09-06T22:08:42.465Z,97365.12
2018-09-06T22:11:10.701Z,97359.62
2018-09-06T22:13:38.954Z,97367.86
2018-09-06T22:16:07.134Z,97361.19
2018-09-06T22:18:35.858Z,97357.07
2018-09-06T22:21:04.102Z,97364.92
2018-09-06T22:23:32.292Z,97370.03
2018-09-06T22:26:00.486Z,97372.02
2018-09-06T22:28:29.146Z,97370.66
2018-09-06T22:30:57.413Z,97373.76
2018-09-06T22:33:25.611Z,97367.66
2018-09-06T22:35:53.851Z,97370.60
2018-09-06T22:38:22.139Z,97369.80
2018-09-06T22:40:50.428Z,97375.59
2018-09-06T22:43:18.601Z,97375.98
2018-09-06T22:45:46.772Z,97375.57
2018-09-06T22:48:14.965Z,97380.27
2018-09-06T22:50:43.201Z,97383.02
2018-09-06T22:53:11.388Z,97389.09
2018-09-06T22:55:39.565Z,97395.34
2018-09-06T22:58:07.852Z,97392.78
2018-09-06T23:00:36.117Z,97401.22
2018-09-06T23:03:09.609Z,97411.20
2018-09-06T23:05:38.133Z,97419.02
2018-09-06T23:08:06.795Z,97422.30
2018-09-06T23:10:35.056Z,97421.91
2018-09-06T23:13:03.230Z,97416.42
2018-09-06T23:15:31.414Z,97413.73
2018-09-06T23:17:59.612Z,97418.05
2018-09-06T23:20:27.814Z,97412.98
2018-09-06T23:22:55.981Z,97420.65
2018-09-06T23:25:24.185Z,97411.07
2018-09-06T23:27:52.394Z,97413.50
2018-09-06T23:30:20.564Z,97406.25
2018-09-06T23:32:48.788Z,97403.92
2018-09-06T23:35:17.111Z,97405.68
2018-09-06T23:37:45.378Z,97402.54
2018-09-06T23:40:13.574Z,97410.13
2018-09-06T23:42:41.816Z,97413.62
2018-09-06T23:45:10.220Z,97410.52
2018-09-06T23:47:38.602Z,97419.38
2018-09-06T23:50:06.860Z,97422.24
2018-09-06T23:52:35.030Z,97420.69
2018-09-06T23:55:03.328Z,97416.86
2018-09-06T23:57:31.581Z,97418.03
2018-09-06T23:59:59.766Z,97416.27
